sensor_id;sensor_type;location;lat;lon;timestamp;pressure;altitude;pressure_sealevel;temperature;humidity
42105;BME280;70664;51.472;5.712;2023-09-12T13:17:40;101101.56;;;23.79;70.96
42105;BME280;70664;51.472;5.712;2023-09-12T13:20:07;101105.56;;;23.86;69.63
42105;BME280;70664;51.472;5.712;2023-09-12T13:22:35;101095.66;;;23.93;70.09
42105;BME280;70664;51.472;5.712;2023-09-12T13:25:01;101103.66;;;23.90;70.17
42105;BME280;70664;51.472;5.712;2023-09-12T13:27:27;101101.81;;;23.92;69.88
42105;BME280;70664;51.472;5.712;2023-09-12T13:29:53;101092.16;;;23.92;70.32
42105;BME280;70664;51.472;5.712;2023-09-12T13:32:19;101097.25;;;23.96;70.20
42105;BME280;70664;51.472;5.712;2023-09-12T13:34:45;101095.44;;;23.98;70.36
42105;BME280;70664;51.472;5.712;2023-09-12T13:37:11;101096.13;;;24.01;70.41
42105;BME280;70664;51.472;5.712;2023-09-12T13:39:36;101091.66;;;24.03;69.78
42105;BME280;70664;51.472;5.712;2023-09-12T13:42:02;101076.53;;;24.08;69.86
42105;BME280;70664;51.472;5.712;2023-09-12T13:44:31;101071.34;;;24.07;68.74
42105;BME280;70664;51.472;5.712;2023-09-12T13:46:56;101067.66;;;24.11;69.39
42105;BME280;70664;51.472;5.712;2023-09-12T13:49:22;101073.06;;;24.08;69.35
42105;BME280;70664;51.472;5.712;2023-09-12T13:51:48;101072.13;;;24.09;69.61
42105;BME280;70664;51.472;5.712;2023-09-12T13:54:14;101073.84;;;24.10;69.56
42105;BME280;70664;51.472;5.712;2023-09-12T13:56:43;101074.59;;;24.12;69.34
42105;BME280;70664;51.472;5.712;2023-09-12T13:59:09;101076.47;;;24.10;69.62
42105;BME280;70664;51.472;5.712;2023-09-12T14:01:35;101072.91;;;24.11;69.69
42105;BME280;70664;51.472;5.712;2023-09-12T14:04:02;101068.50;;;24.12;69.16
42105;BME280;70664;51.472;5.712;2023-09-12T14:06:29;101067.66;;;24.11;69.48
42105;BME280;70664;51.472;5.712;2023-09-12T14:08:54;101074.59;;;24.12;69.04
42105;BME280;70664;51.472;5.712;2023-09-12T14:11:20;101068.41;;;24.13;69.38
42105;BME280;70664;51.472;5.712;2023-09-12T14:13:46;101059.59;;;24.14;69.41
42105;BME280;70664;51.472;5.712;2023-09-12T14:16:12;101064.78;;;24.16;69.32
42105;BME280;70664;51.472;5.712;2023-09-12T14:18:38;101062.16;;;24.16;69.27
42105;BME280;70664;51.472;5.712;2023-09-12T14:21:04;101059.28;;;24.20;68.93
42105;BME280;70664;51.472;5.712;2023-09-12T14:23:29;101058.47;;;24.20;68.93
42105;BME280;70664;51.472;5.712;2023-09-12T14:25:55;101053.25;;;24.18;68.58
42105;BME280;70664;51.472;5.712;2023-09-12T14:28:21;101055.88;;;24.18;68.97
42105;BME280;70664;51.472;5.712;2023-09-12T14:30:47;101047.22;;;24.16;69.15
42105;BME280;70664;51.472;5.712;2023-09-12T14:33:15;101046.25;;;24.19;68.60
42105;BME280;70664;51.472;5.712;2023-09-12T14:35:42;101053.19;;;24.20;68.92
42105;BME280;70664;51.472;5.712;2023-09-12T14:38:08;101053.19;;;24.20;68.76
42105;BME280;70664;51.472;5.712;2023-09-12T14:40:34;101047.94;;;24.20;68.67
42105;BME280;70664;51.472;5.712;2023-09-12T14:43:00;101042.59;;;24.21;68.52
42105;BME280;70664;51.472;5.712;2023-09-12T14:45:28;101041.69;;;24.22;68.90
42105;BME280;70664;51.472;5.712;2023-09-12T14:47:54;101037.28;;;24.23;68.82
42105;BME280;70664;51.472;5.712;2023-09-12T14:50:22;101040.69;;;24.25;68.69
42105;BME280;70664;51.472;5.712;2023-09-12T14:52:55;101039.91;;;24.23;68.94
42105;BME280;70664;51.472;5.712;2023-09-12T14:55:21;101037.34;;;24.21;68.36
42105;BME280;70664;51.472;5.712;2023-09-12T14:57:47;101035.66;;;24.20;68.57
42105;BME280;70664;51.472;5.712;2023-09-12T15:00:14;101033.88;;;24.21;68.65
42105;BME280;70664;51.472;5.712;2023-09-12T15:02:40;101036.34;;;24.24;68.69
42105;BME280;70664;51.472;5.712;2023-09-12T15:05:07;101035.59;;;24.22;68.44
42105;BME280;70664;51.472;5.712;2023-09-12T15:07:34;101028.47;;;24.24;68.41
42105;BME280;70664;51.472;5.712;2023-09-12T15:10:02;101028.47;;;24.24;68.16
42105;BME280;70664;51.472;5.712;2023-09-12T15:12:28;101032.72;;;24.27;68.19
42105;BME280;70664;51.472;5.712;2023-09-12T15:14:54;101032.72;;;24.27;68.33
42105;BME280;70664;51.472;5.712;2023-09-12T15:17:20;101028.28;;;24.27;68.34
42105;BME280;70664;51.472;5.712;2023-09-12T15:19:46;101035.34;;;24.27;68.25
42105;BME280;70664;51.472;5.712;2023-09-12T15:22:12;101036.25;;;24.26;68.09
42105;BME280;70664;51.472;5.712;2023-09-12T15:24:40;101023.28;;;24.22;68.22
42105;BME280;70664;51.472;5.712;2023-09-12T15:27:06;101030.25;;;24.23;68.47
42105;BME280;70664;51.472;5.712;2023-09-12T15:29:32;101025.06;;;24.22;68.35
42105;BME280;70664;51.472;5.712;2023-09-12T15:31:59;101018.13;;;24.21;68.62
42105;BME280;70664;51.472;5.712;2023-09-12T15:34:26;101013.72;;;24.21;68.45
42105;BME280;70664;51.472;5.712;2023-09-12T15:37:12;101004.22;;;24.19;68.51
42105;BME280;70664;51.472;5.712;2023-09-12T15:39:39;101009.38;;;24.20;68.41
42105;BME280;70664;51.472;5.712;2023-09-12T15:42:06;101009.38;;;24.20;68.49
42105;BME280;70664;51.472;5.712;2023-09-12T15:44:32;101020.75;;;24.21;68.40
42105;BME280;70664;51.472;5.712;2023-09-12T15:46:58;101018.19;;;24.19;68.53
42105;BME280;70664;51.472;5.712;2023-09-12T15:49:27;101023.44;;;24.19;68.67
42105;BME280;70664;51.472;5.712;2023-09-12T15:51:54;101023.44;;;24.19;68.84
42105;BME280;70664;51.472;5.712;2023-09-12T15:54:20;101026.06;;;24.19;68.89
42105;BME280;70664;51.472;5.712;2023-09-12T15:56:46;101020.03;;;24.17;68.60
42105;BME280;70664;51.472;5.712;2023-09-12T15:59:12;101021.91;;;24.15;68.77
42105;BME280;70664;51.472;5.712;2023-09-12T16:01:37;101031.47;;;24.16;68.88
42105;BME280;70664;51.472;5.712;2023-09-12T16:04:03;101031.47;;;24.16;69.18
42105;BME280;70664;51.472;5.712;2023-09-12T16:06:29;101025.28;;;24.17;69.69
42105;BME280;70664;51.472;5.712;2023-09-12T16:08:55;101014.72;;;24.19;69.32
42105;BME280;70664;51.472;5.712;2023-09-12T16:11:21;101014.78;;;24.17;69.59
42105;BME280;70664;51.472;5.712;2023-09-12T16:13:46;101025.44;;;24.14;69.80
42105;BME280;70664;51.472;5.712;2023-09-12T16:16:15;101015.72;;;24.16;69.56
42105;BME280;70664;51.472;5.712;2023-09-12T16:18:41;101024.38;;;24.18;69.64
42105;BME280;70664;51.472;5.712;2023-09-12T16:21:08;101023.53;;;24.18;69.56
42105;BME280;70664;51.472;5.712;2023-09-12T16:23:34;101018.44;;;24.15;69.73
42105;BME280;70664;51.472;5.712;2023-09-12T16:26:02;101018.34;;;24.16;69.57
42105;BME280;70664;51.472;5.712;2023-09-12T16:28:28;101014.00;;;24.15;69.72
42105;BME280;70664;51.472;5.712;2023-09-12T16:30:55;101010.41;;;24.18;69.72
42105;BME280;70664;51.472;5.712;2023-09-12T16:33:21;101005.13;;;24.18;69.63
42105;BME280;70664;51.472;5.712;2023-09-12T16:35:47;101005.97;;;24.18;69.72
42105;BME280;70664;51.472;5.712;2023-09-12T16:38:15;101014.09;;;24.14;69.83
42105;BME280;70664;51.472;5.712;2023-09-12T16:40:40;101023.84;;;24.12;69.96
42105;BME280;70664;51.472;5.712;2023-09-12T16:43:07;101022.03;;;24.12;70.15
42105;BME280;70664;51.472;5.712;2023-09-12T16:45:33;101023.06;;;24.09;70.21
42105;BME280;70664;51.472;5.712;2023-09-12T16:47:59;101029.94;;;24.12;70.22
42105;BME280;70664;51.472;5.712;2023-09-12T16:50:25;101031.72;;;24.12;70.37
42105;BME280;70664;51.472;5.712;2023-09-12T16:52:51;101029.94;;;24.12;70.36
42105;BME280;70664;51.472;5.712;2023-09-12T16:55:18;101034.34;;;24.12;70.79
42105;BME280;70664;51.472;5.712;2023-09-12T16:57:44;101032.66;;;24.11;70.99
42105;BME280;70664;51.472;5.712;2023-09-12T17:00:11;101027.38;;;24.11;71.06
42105;BME280;70664;51.472;5.712;2023-09-12T17:02:38;101022.13;;;24.11;70.83
42105;BME280;70664;51.472;5.712;2023-09-12T17:05:05;101017.75;;;24.11;70.48
42105;BME280;70664;51.472;5.712;2023-09-12T17:07:31;101027.47;;;24.09;70.44
42105;BME280;70664;51.472;5.712;2023-09-12T17:09:57;101021.38;;;24.08;70.99
42105;BME280;70664;51.472;5.712;2023-09-12T17:12:24;101029.25;;;24.08;70.57
42105;BME280;70664;51.472;5.712;2023-09-12T17:14:50;101018.75;;;24.08;70.76
42105;BME280;70664;51.472;5.712;2023-09-12T17:17:16;101024.91;;;24.07;70.68
42105;BME280;70664;51.472;5.712;2023-09-12T17:19:42;101027.63;;;24.06;70.75
42105;BME280;70664;51.472;5.712;2023-09-12T17:22:12;101018.97;;;24.04;70.91
42105;BME280;70664;51.472;5.712;2023-09-12T17:24:38;101024.16;;;24.05;70.93
42105;BME280;70664;51.472;5.712;2023-09-12T17:27:04;101023.06;;;24.09;71.00
42105;BME280;70664;51.472;5.712;2023-09-12T17:29:31;101016.19;;;24.07;71.19
42105;BME280;70664;51.472;5.712;2023-09-12T17:31:56;101031.97;;;24.07;71.10
42105;BME280;70664;51.472;5.712;2023-09-12T17:34:45;101031.63;;;24.13;71.07
42105;BME280;70664;51.472;5.712;2023-09-12T17:37:15;101037.91;;;24.11;71.53
42105;BME280;70664;51.472;5.712;2023-09-12T17:39:41;101046.69;;;24.09;71.76
42105;BME280;70664;51.472;5.712;2023-09-12T17:42:07;101044.06;;;24.09;71.33
42105;BME280;70664;51.472;5.712;2023-09-12T17:44:33;101054.59;;;24.09;71.69
42105;BME280;70664;51.472;5.712;2023-09-12T17:46:59;101045.88;;;24.09;71.87
42105;BME280;70664;51.472;5.712;2023-09-12T17:49:25;101055.44;;;24.10;71.90
42105;BME280;70664;51.472;5.712;2023-09-12T17:51:51;101061.53;;;24.11;71.85
42105;BME280;70664;51.472;5.712;2023-09-12T17:54:17;101060.69;;;24.10;71.77
42105;BME280;70664;51.472;5.712;2023-09-12T17:56:42;101064.16;;;24.11;71.80
42105;BME280;70664;51.472;5.712;2023-09-12T17:59:08;101066.78;;;24.11;71.68
42105;BME280;70664;51.472;5.712;2023-09-12T18:01:34;101066.78;;;24.11;71.87
42105;BME280;70664;51.472;5.712;2023-09-12T18:04:00;101067.72;;;24.09;71.86
42105;BME280;70664;51.472;5.712;2023-09-12T18:06:26;101071.22;;;24.10;71.93
42105;BME280;70664;51.472;5.712;2023-09-12T18:08:57;101078.84;;;24.15;71.45
42105;BME280;70664;51.472;5.712;2023-09-12T18:11:23;101084.72;;;24.20;71.66
42105;BME280;70664;51.472;5.712;2023-09-12T18:13:49;101081.09;;;24.22;71.18
42105;BME280;70664;51.472;5.712;2023-09-12T18:16:15;101084.41;;;24.26;71.12
42105;BME280;70664;51.472;5.712;2023-09-12T18:18:43;101083.72;;;24.22;71.03
42105;BME280;70664;51.472;5.712;2023-09-12T18:21:09;101080.84;;;24.27;71.31
42105;BME280;70664;51.472;5.712;2023-09-12T18:23:34;101084.41;;;24.26;71.30
42105;BME280;70664;51.472;5.712;2023-09-12T18:26:05;101084.47;;;24.24;71.26
42105;BME280;70664;51.472;5.712;2023-09-12T18:28:45;101098.53;;;24.23;71.21
42105;BME280;70664;51.472;5.712;2023-09-12T18:31:14;101099.31;;;24.26;71.41
42105;BME280;70664;51.472;5.712;2023-09-12T18:33:41;101105.50;;;24.24;71.42
42105;BME280;70664;51.472;5.712;2023-09-12T18:36:09;101104.66;;;24.24;71.34
42105;BME280;70664;51.472;5.712;2023-09-12T18:38:38;101111.84;;;24.20;71.49
42105;BME280;70664;51.472;5.712;2023-09-12T18:41:05;101111.63;;;24.25;71.45
42105;BME280;70664;51.472;5.712;2023-09-12T18:43:30;101116.94;;;24.23;71.46
42105;BME280;70664;51.472;5.712;2023-09-12T18:45:56;101124.75;;;24.25;71.69
42105;BME280;70664;51.472;5.712;2023-09-12T18:48:23;101113.47;;;24.23;71.51
42105;BME280;70664;51.472;5.712;2023-09-12T18:50:49;101117.81;;;24.24;71.56
42105;BME280;70664;51.472;5.712;2023-09-12T18:53:17;101115.09;;;24.26;71.52
42105;BME280;70664;51.472;5.712;2023-09-12T18:55:44;101118.50;;;24.28;71.69
42105;BME280;70664;51.472;5.712;2023-09-12T18:58:11;101116.00;;;24.24;71.62
42105;BME280;70664;51.472;5.712;2023-09-12T19:00:37;101114.25;;;24.25;71.94
42105;BME280;70664;51.472;5.712;2023-09-12T19:03:06;101110.59;;;24.28;71.49
42105;BME280;70664;51.472;5.712;2023-09-12T19:05:32;101114.94;;;24.29;71.64
42105;BME280;70664;51.472;5.712;2023-09-12T19:07:58;101113.28;;;24.26;71.90
42105;BME280;70664;51.472;5.712;2023-09-12T19:10:24;101108.81;;;24.28;71.52
42105;BME280;70664;51.472;5.712;2023-09-12T19:12:49;101111.38;;;24.30;71.99
42105;BME280;70664;51.472;5.712;2023-09-12T19:15:15;101106.13;;;24.30;71.55
42105;BME280;70664;51.472;5.712;2023-09-12T19:17:42;101109.69;;;24.29;71.55
42105;BME280;70664;51.472;5.712;2023-09-12T19:20:08;101111.38;;;24.30;71.84
42105;BME280;70664;51.472;5.712;2023-09-12T19:22:35;101102.56;;;24.31;71.91
42105;BME280;70664;51.472;5.712;2023-09-12T19:25:02;101101.78;;;24.29;71.76
42105;BME280;70664;51.472;5.712;2023-09-12T19:27:28;101102.78;;;24.26;71.57
42105;BME280;70664;51.472;5.712;2023-09-12T19:29:54;101101.03;;;24.27;71.79
42105;BME280;70664;51.472;5.712;2023-09-12T19:32:21;101098.31;;;24.28;71.75
42105;BME280;70664;51.472;5.712;2023-09-12T19:34:48;101105.19;;;24.31;71.55
42105;BME280;70664;51.472;5.712;2023-09-12T19:37:14;101105.09;;;24.32;71.70
42105;BME280;70664;51.472;5.712;2023-09-12T19:39:40;101100.56;;;24.36;71.64
42105;BME280;70664;51.472;5.712;2023-09-12T19:42:06;101091.03;;;24.33;71.40
42105;BME280;70664;51.472;5.712;2023-09-12T19:44:33;101093.75;;;24.32;71.67
42105;BME280;70664;51.472;5.712;2023-09-12T19:46:59;101088.41;;;24.33;71.52
42105;BME280;70664;51.472;5.712;2023-09-12T19:49:25;101086.66;;;24.34;71.59
42105;BME280;70664;51.472;5.712;2023-09-12T19:51:51;101085.78;;;24.33;71.62
42105;BME280;70664;51.472;5.712;2023-09-12T19:54:17;101081.41;;;24.34;71.33
42105;BME280;70664;51.472;5.712;2023-09-12T19:56:46;101077.06;;;24.33;71.52
42105;BME280;70664;51.472;5.712;2023-09-12T19:59:12;101076.06;;;24.35;71.38
42105;BME280;70664;51.472;5.712;2023-09-12T20:01:38;101069.09;;;24.34;71.62
42105;BME280;70664;51.472;5.712;2023-09-12T20:04:06;101069.03;;;24.36;71.85
42105;BME280;70664;51.472;5.712;2023-09-12T20:06:33;101069.72;;;24.39;71.53
42105;BME280;70664;51.472;5.712;2023-09-12T20:08:59;101069.63;;;24.41;71.34
42105;BME280;70664;51.472;5.712;2023-09-12T20:11:24;101064.38;;;24.41;71.45
42105;BME280;70664;51.472;5.712;2023-09-12T20:13:51;101064.38;;;24.41;71.38
42105;BME280;70664;51.472;5.712;2023-09-12T20:16:17;101072.25;;;24.41;71.24
42105;BME280;70664;51.472;5.712;2023-09-12T20:18:44;101077.50;;;24.41;71.40
42105;BME280;70664;51.472;5.712;2023-09-12T20:21:10;101073.88;;;24.44;71.45
42105;BME280;70664;51.472;5.712;2023-09-12T20:23:37;101074.81;;;24.43;71.31
42105;BME280;70664;51.472;5.712;2023-09-12T20:26:03;101070.34;;;24.45;71.40
42105;BME280;70664;51.472;5.712;2023-09-12T20:28:36;101070.34;;;24.45;71.17
42105;BME280;70664;51.472;5.712;2023-09-12T20:31:02;101071.25;;;24.44;71.31
42105;BME280;70664;51.472;5.712;2023-09-12T20:33:28;101070.25;;;24.46;71.35
42105;BME280;70664;51.472;5.712;2023-09-12T20:35:54;101072.03;;;24.46;71.62
42105;BME280;70664;51.472;5.712;2023-09-12T20:38:22;101082.44;;;24.47;71.60
42105;BME280;70664;51.472;5.712;2023-09-12T20:40:48;101084.31;;;24.45;71.36
42105;BME280;70664;51.472;5.712;2023-09-12T20:43:15;101086.88;;;24.47;71.30
42105;BME280;70664;51.472;5.712;2023-09-12T20:45:41;101085.09;;;24.47;71.30
42105;BME280;70664;51.472;5.712;2023-09-12T20:48:07;101087.72;;;24.47;71.59
42105;BME280;70664;51.472;5.712;2023-09-12T20:50:34;101096.47;;;24.48;71.48
42105;BME280;70664;51.472;5.712;2023-09-12T20:53:04;101100.06;;;24.45;71.76
42105;BME280;70664;51.472;5.712;2023-09-12T20:55:36;101098.22;;;24.47;71.60
42105;BME280;70664;51.472;5.712;2023-09-12T20:58:02;101106.03;;;24.49;71.37
42105;BME280;70664;51.472;5.712;2023-09-12T21:00:29;101096.47;;;24.48;71.67
42105;BME280;70664;51.472;5.712;2023-09-12T21:02:55;101099.91;;;24.48;71.86
42105;BME280;70664;51.472;5.712;2023-09-12T21:05:20;101101.63;;;24.49;71.66
42105;BME280;70664;51.472;5.712;2023-09-12T21:07:47;101103.31;;;24.50;71.62
42105;BME280;70664;51.472;5.712;2023-09-12T21:10:14;101103.25;;;24.52;71.25
42105;BME280;70664;51.472;5.712;2023-09-12T21:12:40;101105.91;;;24.52;71.53
42105;BME280;70664;51.472;5.712;2023-09-12T21:15:07;101105.03;;;24.51;71.77
42105;BME280;70664;51.472;5.712;2023-09-12T21:17:37;101111.16;;;24.52;71.35
42105;BME280;70664;51.472;5.712;2023-09-12T21:20:05;101105.94;;;24.50;71.69
42105;BME280;70664;51.472;5.712;2023-09-12T21:22:32;101109.44;;;24.51;71.57
42105;BME280;70664;51.472;5.712;2023-09-12T21:24:58;101112.91;;;24.51;71.43
42105;BME280;70664;51.472;5.712;2023-09-12T21:27:24;101118.25;;;24.50;71.83
42105;BME280;70664;51.472;5.712;2023-09-12T21:29:52;101119.88;;;24.52;71.56
42105;BME280;70664;51.472;5.712;2023-09-12T21:32:17;101125.03;;;24.54;71.55
42105;BME280;70664;51.472;5.712;2023-09-12T21:34:44;101122.91;;;24.45;71.92
42105;BME280;70664;51.472;5.712;2023-09-12T21:37:11;101121.25;;;24.42;72.15
42105;BME280;70664;51.472;5.712;2023-09-12T21:39:40;101120.47;;;24.40;72.01
42105;BME280;70664;51.472;5.712;2023-09-12T21:42:09;101115.31;;;24.38;72.19
42105;BME280;70664;51.472;5.712;2023-09-12T21:44:37;101125.81;;;24.38;72.12
42105;BME280;70664;51.472;5.712;2023-09-12T21:47:04;101123.28;;;24.37;72.02
42105;BME280;70664;51.472;5.712;2023-09-12T21:49:31;101119.88;;;24.35;72.55
42105;BME280;70664;51.472;5.712;2023-09-12T21:51:58;101114.63;;;24.35;72.36
42105;BME280;70664;51.472;5.712;2023-09-12T21:54:24;101114.63;;;24.35;72.50
42105;BME280;70664;51.472;5.712;2023-09-12T21:56:50;101113.84;;;24.33;72.30
42105;BME280;70664;51.472;5.712;2023-09-12T21:59:16;101112.94;;;24.34;72.06
42105;BME280;70664;51.472;5.712;2023-09-12T22:01:41;101117.31;;;24.33;72.20
42105;BME280;70664;51.472;5.712;2023-09-12T22:04:07;101117.25;;;24.35;72.31
42105;BME280;70664;51.472;5.712;2023-09-12T22:06:33;101111.28;;;24.31;72.02
42105;BME280;70664;51.472;5.712;2023-09-12T22:08:59;101109.59;;;24.30;72.01
42105;BME280;70664;51.472;5.712;2023-09-12T22:11:26;101111.38;;;24.30;72.39
42105;BME280;70664;51.472;5.712;2023-09-12T22:13:52;101115.00;;;24.27;72.32
42105;BME280;70664;51.472;5.712;2023-09-12T22:16:18;101115.09;;;24.26;72.58
42105;BME280;70664;51.472;5.712;2023-09-12T22:18:43;101111.69;;;24.23;72.39
42105;BME280;70664;51.472;5.712;2023-09-12T22:21:09;101115.22;;;24.22;72.47
42105;BME280;70664;51.472;5.712;2023-09-12T22:23:35;101112.69;;;24.21;72.55
42105;BME280;70664;51.472;5.712;2023-09-12T22:26:12;101115.38;;;24.19;72.74
42105;BME280;70664;51.472;5.712;2023-09-12T22:28:39;101115.38;;;24.19;72.44
42105;BME280;70664;51.472;5.712;2023-09-12T22:31:10;101115.47;;;24.18;72.30
42105;BME280;70664;51.472;5.712;2023-09-12T22:33:37;101118.09;;;24.18;72.45
42105;BME280;70664;51.472;5.712;2023-09-12T22:36:03;101125.06;;;24.19;72.55
42105;BME280;70664;51.472;5.712;2023-09-12T22:38:32;101115.53;;;24.16;72.52
42105;BME280;70664;51.472;5.712;2023-09-12T22:41:02;101120.88;;;24.15;72.41
42105;BME280;70664;51.472;5.712;2023-09-12T22:43:29;101121.81;;;24.14;72.21
42105;BME280;70664;51.472;5.712;2023-09-12T22:45:56;101120.94;;;24.13;72.71
42105;BME280;70664;51.472;5.712;2023-09-12T22:48:23;101122.72;;;24.13;72.49
42105;BME280;70664;51.472;5.712;2023-09-12T22:50:49;101131.53;;;24.12;72.84
42105;BME280;70664;51.472;5.712;2023-09-12T22:53:17;101129.84;;;24.11;72.34
42105;BME280;70664;51.472;5.712;2023-09-12T22:55:43;101131.63;;;24.10;72.86
42105;BME280;70664;51.472;5.712;2023-09-12T22:58:09;101132.53;;;24.09;72.64
42105;BME280;70664;51.472;5.712;2023-09-12T23:00:36;101129.00;;;24.10;72.49
42105;BME280;70664;51.472;5.712;2023-09-12T23:03:04;101131.69;;;24.08;72.42
42105;BME280;70664;51.472;5.712;2023-09-12T23:05:30;101138.63;;;24.09;72.32
42105;BME280;70664;51.472;5.712;2023-09-12T23:07:56;101131.78;;;24.07;72.56
42105;BME280;70664;51.472;5.712;2023-09-12T23:10:22;101127.44;;;24.06;72.38
42105;BME280;70664;51.472;5.712;2023-09-12T23:12:48;101128.28;;;24.06;72.24
42105;BME280;70664;51.472;5.712;2023-09-12T23:15:13;101134.44;;;24.05;72.44
42105;BME280;70664;51.472;5.712;2023-09-12T23:17:39;101136.25;;;24.05;72.66
42105;BME280;70664;51.472;5.712;2023-09-12T23:20:06;101146.81;;;24.03;72.63
42105;BME280;70664;51.472;5.712;2023-09-12T23:22:38;101134.53;;;24.04;72.32
42105;BME280;70664;51.472;5.712;2023-09-12T23:25:05;101138.09;;;24.03;72.40
42105;BME280;70664;51.472;5.712;2023-09-12T23:27:33;101129.34;;;24.02;72.51
42105;BME280;70664;51.472;5.712;2023-09-12T23:30:01;101129.28;;;24.04;72.14
42105;BME280;70664;51.472;5.712;2023-09-12T23:32:27;101131.13;;;24.02;72.24
42105;BME280;70664;51.472;5.712;2023-09-12T23:34:53;101129.44;;;24.01;72.46
42105;BME280;70664;51.472;5.712;2023-09-12T23:37:19;101123.31;;;24.00;72.52
42105;BME280;70664;51.472;5.712;2023-09-12T23:39:45;101119.00;;;23.99;72.26
42105;BME280;70664;51.472;5.712;2023-09-12T23:42:12;101116.38;;;23.99;72.64
42105;BME280;70664;51.472;5.712;2023-09-12T23:44:38;101123.41;;;23.99;72.37
42105;BME280;70664;51.472;5.712;2023-09-12T23:47:05;101121.63;;;23.99;72.42
42105;BME280;70664;51.472;5.712;2023-09-12T23:49:31;101127.78;;;23.98;72.54
42105;BME280;70664;51.472;5.712;2023-09-12T23:51:57;101122.59;;;23.97;72.52
42105;BME280;70664;51.472;5.712;2023-09-12T23:54:23;101122.59;;;23.97;72.40
42105;BME280;70664;51.472;5.712;2023-09-12T23:56:48;101123.53;;;23.96;72.31
42105;BME280;70664;51.472;5.712;2023-09-12T23:59:14;101117.44;;;23.95;71.89
